Time;durP1;ratioP1;P1;durP2;ratioP2;P2;SDS_P1;SDS_P2;PMS_P1;PMS_P2;Temp;Humidity;BMP_temperature;BMP_pressure;BME280_temperature;BME280_humidity;BME280_pressure;Samples;Min_cycle;Max_cycle;Signal;HPM_P1;HPM_P2
2024/01/01 00:00:51;;;;;;;296.97;166.47;;;3.90;99.90;;;;;;5034962;28;20731;-62
2024/01/01 00:03:18;;;;;;;265.53;147.97;;;3.70;99.90;;;;;;5034090;28;20221;-63
2024/01/01 00:05:45;;;;;;;251.83;141.10;;;;;;;;;;5030182;28;20224;-63
2024/01/01 00:08:13;;;;;;;323.83;173.93;;;3.60;99.90;;;;;;5027113;28;20279;-62
2024/01/01 00:10:40;;;;;;;276.03;155.93;;;3.70;99.90;;;;;;5038130;28;20205;-62
2024/01/01 00:13:07;;;;;;;330.80;175.67;;;3.60;99.90;;;;;;5032808;28;20211;-62
2024/01/01 00:15:34;;;;;;;271.33;156.27;;;3.70;99.90;;;;;;5031692;28;20236;-62
2024/01/01 00:18:01;;;;;;;284.10;152.77;;;3.40;99.90;;;;;;5026381;28;20584;-62
2024/01/01 00:20:28;;;;;;;305.67;164.57;;;3.40;99.90;;;;;;5031946;28;20259;-62
2024/01/01 00:22:55;;;;;;;239.20;132.50;;;3.60;99.90;;;;;;5035331;28;20826;-62
2024/01/01 00:25:23;;;;;;;221.93;127.07;;;3.50;99.90;;;;;;5031980;28;20258;-63
2024/01/01 00:27:50;;;;;;;241.37;130.03;;;3.50;99.90;;;;;;5029508;28;20197;-62
2024/01/01 00:30:17;;;;;;;199.73;109.00;;;;;;;;;;5033954;28;20636;-62
2024/01/01 00:32:44;;;;;;;234.80;128.10;;;3.50;99.90;;;;;;5032481;28;20208;-62
2024/01/01 00:35:11;;;;;;;241.47;126.30;;;3.40;99.90;;;;;;5032468;28;20220;-62
2024/01/01 00:37:38;;;;;;;227.73;126.63;;;3.50;99.90;;;;;;5030808;28;20630;-62
2024/01/01 00:40:07;;;;;;;216.07;118.97;;;3.60;99.90;;;;;;5033916;28;20206;-63
2024/01/01 00:42:35;;;;;;;224.90;121.53;;;3.40;99.90;;;;;;5034091;28;20260;-62
2024/01/01 00:45:02;;;;;;;225.90;128.27;;;3.30;99.90;;;;;;5032120;28;20283;-62
2024/01/01 00:47:29;;;;;;;208.53;119.17;;;3.20;99.90;;;;;;5021866;28;20202;-62
2024/01/01 00:49:57;;;;;;;160.43;94.20;;;3.30;99.90;;;;;;5029013;28;20243;-62
2024/01/01 00:52:24;;;;;;;185.00;98.23;;;3.30;99.90;;;;;;5027678;28;20742;-62
2024/01/01 00:54:52;;;;;;;198.30;111.60;;;3.20;99.90;;;;;;5030514;28;20728;-62
2024/01/01 00:57:19;;;;;;;171.47;90.57;;;3.00;99.90;;;;;;5013970;28;20283;-62
2024/01/01 00:59:47;;;;;;;168.17;95.27;;;3.00;99.90;;;;;;5015318;28;20206;-62
2024/01/01 01:02:14;;;;;;;153.27;91.70;;;3.10;99.90;;;;;;5025369;28;20201;-62
2024/01/01 01:04:42;;;;;;;193.30;104.07;;;2.90;99.90;;;;;;5033819;28;20279;-62
2024/01/01 01:07:09;;;;;;;199.43;107.67;;;;;;;;;;5033621;28;20201;-62
2024/01/01 01:09:36;;;;;;;139.03;80.37;;;2.80;99.90;;;;;;5024449;28;20259;-62
2024/01/01 01:12:04;;;;;;;177.63;98.67;;;2.70;99.90;;;;;;5029252;28;20327;-62
2024/01/01 01:14:31;;;;;;;169.23;94.83;;;2.80;99.90;;;;;;5013359;28;20216;-62
2024/01/01 01:17:01;;;;;;;175.47;96.93;;;2.80;99.90;;;;;;5013721;28;20232;-62
2024/01/01 01:19:28;;;;;;;162.50;88.67;;;;;;;;;;5013226;28;20255;-62
2024/01/01 01:21:55;;;;;;;117.07;67.97;;;2.70;99.90;;;;;;5013592;28;20272;-62
2024/01/01 01:24:22;;;;;;;120.30;64.27;;;2.70;99.90;;;;;;5024330;28;20217;-62
2024/01/01 01:26:49;;;;;;;126.70;70.43;;;2.80;99.90;;;;;;5025123;28;20282;-63
2024/01/01 01:29:17;;;;;;;147.50;80.47;;;2.70;99.90;;;;;;5033117;28;20209;-63
2024/01/01 01:31:46;;;;;;;116.43;66.53;;;2.70;99.90;;;;;;5033372;28;20874;-63
2024/01/01 01:34:14;;;;;;;130.73;68.50;;;2.90;99.90;;;;;;5031073;28;20201;-63
2024/01/01 01:36:41;;;;;;;117.30;65.27;;;2.90;99.90;;;;;;5023116;28;20783;-62
2024/01/01 01:39:09;;;;;;;146.30;75.60;;;2.90;99.90;;;;;;5032643;28;20267;-63
2024/01/01 01:41:37;;;;;;;113.83;61.73;;;2.90;99.90;;;;;;5031769;28;20212;-63
2024/01/01 01:44:04;;;;;;;126.00;66.77;;;2.80;99.90;;;;;;5013176;28;20221;-63
2024/01/01 01:46:32;;;;;;;118.57;63.37;;;2.90;99.90;;;;;;5027337;28;20215;-62
2024/01/01 01:48:59;;;;;;;99.60;50.03;;;2.90;99.90;;;;;;5012700;28;20255;-63
2024/01/01 01:51:27;;;;;;;91.20;48.27;;;3.30;99.90;;;;;;5012942;28;20248;-62
2024/01/01 01:53:55;;;;;;;92.60;50.37;;;3.00;99.90;;;;;;5013207;28;20256;-63
2024/01/01 01:56:22;;;;;;;91.67;49.00;;;3.20;99.90;;;;;;5012830;28;20276;-62
2024/01/01 01:58:48;;;;;;;82.83;47.53;;;3.10;99.90;;;;;;5014025;28;20251;-62
2024/01/01 02:01:16;;;;;;;114.80;58.70;;;3.00;99.90;;;;;;5016155;28;20270;-63
2024/01/01 02:03:44;;;;;;;112.57;57.80;;;2.80;99.90;;;;;;5024373;28;20704;-63
2024/01/01 02:06:11;;;;;;;122.83;58.27;;;2.90;99.90;;;;;;5032826;28;20307;-62
2024/01/01 02:08:40;;;;;;;105.57;58.53;;;3.00;99.90;;;;;;5031641;28;20255;-63
2024/01/01 02:11:06;;;;;;;112.50;56.17;;;3.00;99.90;;;;;;5008681;28;20439;-62
2024/01/01 02:13:33;;;;;;;95.47;52.30;;;2.90;99.90;;;;;;5016146;28;20264;-63
2024/01/01 02:16:01;;;;;;;84.33;48.00;;;;;;;;;;5020143;28;20289;-63
2024/01/01 02:18:28;;;;;;;97.33;50.30;;;3.00;99.90;;;;;;5015042;28;20266;-62
2024/01/01 02:20:56;;;;;;;77.13;43.43;;;3.00;99.90;;;;;;5016022;28;20263;-62
2024/01/01 02:23:24;;;;;;;68.33;39.37;;;;;;;;;;5021863;28;20231;-63
2024/01/01 02:25:52;;;;;;;60.73;36.63;;;;;;;;;;5013259;28;20233;-62
2024/01/01 02:28:19;;;;;;;63.10;37.93;;;;;;;;;;5012381;28;20208;-62
2024/01/01 02:30:46;;;;;;;73.13;40.53;;;;;;;;;;5013045;28;20267;-62
2024/01/01 02:33:14;;;;;;;55.30;32.80;;;;;;;;;;5011491;28;20201;-63
2024/01/01 02:35:41;;;;;;;36.80;22.27;;;;;;;;;;5011277;28;20315;-62
2024/01/01 02:38:09;;;;;;;36.67;21.63;;;;;;;;;;5017163;28;20201;-62
2024/01/01 02:40:37;;;;;;;31.40;20.27;;;;;;;;;;5016130;28;20750;-62
2024/01/01 02:43:05;;;;;;;32.30;19.53;;;;;;;;;;5011037;28;20576;-64
2024/01/01 02:45:32;;;;;;;31.23;19.43;;;;;;;;;;5021078;28;20229;-64
2024/01/01 02:47:59;;;;;;;32.47;19.43;;;;;;;;;;5023464;28;20283;-63
2024/01/01 02:50:26;;;;;;;35.03;20.70;;;3.20;99.90;;;;;;5030838;28;20743;-62
2024/01/01 02:52:53;;;;;;;32.87;19.43;;;3.20;99.90;;;;;;5025189;28;20208;-63
2024/01/01 02:55:20;;;;;;;35.10;21.13;;;3.30;99.90;;;;;;5017396;28;20272;-63
2024/01/01 02:57:48;;;;;;;33.40;20.40;;;3.50;99.90;;;;;;5016314;28;20205;-63
2024/01/01 03:00:16;;;;;;;36.87;20.70;;;3.40;99.90;;;;;;5022231;28;20211;-62
2024/01/01 03:02:43;;;;;;;37.97;23.63;;;3.40;99.90;;;;;;5029927;28;20212;-63
2024/01/01 03:05:10;;;;;;;31.47;21.67;;;3.50;99.90;;;;;;5029579;28;20232;-63
2024/01/01 03:07:37;;;;;;;42.03;24.27;;;3.50;99.90;;;;;;5025983;28;20201;-62
2024/01/01 03:10:05;;;;;;;34.67;23.87;;;;;;;;;;5016090;28;20210;-62
2024/01/01 03:12:33;;;;;;;38.47;24.90;;;3.50;99.90;;;;;;5010662;28;20231;-62
2024/01/01 03:15:03;;;;;;;41.73;24.67;;;3.60;99.90;;;;;;5011553;28;20304;-63
2024/01/01 03:17:30;;;;;;;40.37;25.60;;;3.40;99.90;;;;;;5021652;28;20208;-63
2024/01/01 03:19:57;;;;;;;39.33;25.47;;;3.40;99.90;;;;;;5022837;28;20604;-63
2024/01/01 03:22:24;;;;;;;39.83;25.17;;;;;;;;;;5030682;28;20199;-63
2024/01/01 03:24:51;;;;;;;36.53;24.33;;;3.50;99.90;;;;;;5030018;28;20643;-63
2024/01/01 03:27:19;;;;;;;43.77;26.23;;;;;;;;;;5010415;28;20216;-63
2024/01/01 03:29:46;;;;;;;38.30;25.33;;;3.40;99.90;;;;;;5019962;28;20200;-63
2024/01/01 03:32:14;;;;;;;38.10;25.13;;;3.30;99.90;;;;;;5031406;28;20204;-62
2024/01/01 03:34:41;;;;;;;31.80;21.40;;;3.30;99.90;;;;;;5034995;28;20231;-63
2024/01/01 03:37:08;;;;;;;41.93;25.90;;;;;;;;;;5028302;28;20303;-63
2024/01/01 03:39:35;;;;;;;40.73;25.37;;;3.20;99.90;;;;;;5030804;28;20267;-63
2024/01/01 03:42:02;;;;;;;38.03;24.67;;;;;;;;;;5012403;28;20752;-63
2024/01/01 03:44:29;;;;;;;35.30;24.00;;;3.20;99.90;;;;;;5011465;28;20226;-64
2024/01/01 03:47:00;;;;;;;41.97;25.17;;;3.40;99.90;;;;;;5010189;28;20225;-63
2024/01/01 03:49:28;;;;;;;32.27;21.03;;;3.20;99.90;;;;;;5009805;28;20201;-63
2024/01/01 03:51:55;;;;;;;37.33;23.57;;;3.40;99.90;;;;;;5027656;28;20196;-63
2024/01/01 03:54:23;;;;;;;35.60;21.27;;;3.40;99.90;;;;;;5019910;28;20288;-63
2024/01/01 03:56:49;;;;;;;29.77;18.00;;;3.40;99.90;;;;;;5009984;28;20236;-63
2024/01/01 03:59:16;;;;;;;33.70;20.47;;;3.40;99.90;;;;;;5009829;28;20213;-63
2024/01/01 04:01:43;;;;;;;26.30;17.13;;;3.50;99.90;;;;;;5009673;28;20204;-63
2024/01/01 04:04:10;;;;;;;30.90;19.60;;;3.60;99.90;;;;;;5017447;28;20221;-63
2024/01/01 04:06:39;;;;;;;26.67;17.17;;;3.50;99.90;;;;;;5027243;28;20225;-63
2024/01/01 04:09:06;;;;;;;32.80;17.83;;;3.70;99.90;;;;;;5030844;28;20755;-63
2024/01/01 04:11:33;;;;;;;28.87;16.90;;;3.60;99.90;;;;;;5019516;28;20206;-63
2024/01/01 04:14:01;;;;;;;28.90;17.57;;;3.50;99.90;;;;;;5012674;28;20224;-63
2024/01/01 04:16:28;;;;;;;24.67;16.03;;;3.70;99.90;;;;;;5016293;28;20318;-63
2024/01/01 04:18:55;;;;;;;26.17;16.57;;;3.70;99.90;;;;;;5022393;28;20207;-63
2024/01/01 04:21:22;;;;;;;26.73;17.37;;;3.60;99.90;;;;;;5026185;28;20213;-63
2024/01/01 04:23:51;;;;;;;24.23;17.20;;;3.70;99.90;;;;;;5010996;28;20647;-63
2024/01/01 04:26:18;;;;;;;30.90;19.23;;;3.80;99.90;;;;;;5014188;28;20229;-63
2024/01/01 04:28:44;;;;;;;30.00;18.87;;;3.60;99.90;;;;;;5014520;28;20256;-63
2024/01/01 04:31:11;;;;;;;24.73;16.90;;;3.70;99.90;;;;;;5014888;28;20259;-63
2024/01/01 04:33:38;;;;;;;26.87;15.30;;;3.70;99.90;;;;;;5014879;28;20208;-63
2024/01/01 04:36:06;;;;;;;25.63;15.60;;;3.80;99.90;;;;;;5014854;28;20291;-63
2024/01/01 04:38:33;;;;;;;29.10;17.27;;;3.90;99.90;;;;;;5031837;28;20308;-63
2024/01/01 04:41:02;;;;;;;25.53;16.53;;;3.80;99.90;;;;;;5026781;28;20287;-63
2024/01/01 04:43:29;;;;;;;28.70;17.63;;;3.80;99.90;;;;;;5030523;28;20219;-62
2024/01/01 04:45:56;;;;;;;25.10;15.50;;;3.90;99.90;;;;;;5014250;28;20316;-62
2024/01/01 04:48:23;;;;;;;24.70;16.27;;;3.80;99.90;;;;;;5014417;28;20206;-62
2024/01/01 04:50:50;;;;;;;25.07;14.90;;;3.80;99.90;;;;;;5022173;28;20215;-62
2024/01/01 04:53:17;;;;;;;23.13;16.73;;;3.80;99.90;;;;;;5014626;28;20275;-63
2024/01/01 04:55:44;;;;;;;26.70;17.80;;;3.80;99.90;;;;;;5014353;28;20222;-63
2024/01/01 04:58:12;;;;;;;25.13;16.23;;;3.80;99.90;;;;;;5006405;28;20202;-63
2024/01/01 05:00:39;;;;;;;26.73;18.20;;;3.80;99.90;;;;;;5013520;28;20750;-62
2024/01/01 05:03:06;;;;;;;30.40;17.17;;;3.70;99.90;;;;;;5013980;28;20747;-63
2024/01/01 05:05:33;;;;;;;27.40;18.07;;;3.70;99.90;;;;;;5013788;28;20229;-62
2024/01/01 05:08:00;;;;;;;34.27;19.47;;;3.60;99.90;;;;;;5013921;28;20209;-62
2024/01/01 05:10:27;;;;;;;29.90;18.80;;;3.60;99.90;;;;;;5014731;28;20199;-63
2024/01/01 05:12:54;;;;;;;28.70;20.23;;;3.50;99.90;;;;;;5013755;28;20267;-63
2024/01/01 05:15:23;;;;;;;34.97;22.07;;;3.50;99.90;;;;;;5013825;28;20225;-62
2024/01/01 05:17:50;;;;;;;30.23;18.97;;;3.40;99.90;;;;;;5012019;28;20233;-63
2024/01/01 05:20:17;;;;;;;32.80;20.23;;;3.50;99.90;;;;;;5005500;28;20209;-63
2024/01/01 05:22:44;;;;;;;32.33;20.37;;;3.30;99.90;;;;;;5012843;28;20209;-63
2024/01/01 05:25:12;;;;;;;30.93;18.60;;;3.30;99.90;;;;;;5009283;28;20232;-62
2024/01/01 05:27:38;;;;;;;29.80;18.60;;;3.40;99.90;;;;;;5018126;28;20212;-62
2024/01/01 05:30:07;;;;;;;30.53;20.73;;;3.30;99.90;;;;;;5018679;28;20209;-63
2024/01/01 05:32:35;;;;;;;34.23;21.63;;;3.20;99.90;;;;;;5013670;28;20209;-62
2024/01/01 05:35:03;;;;;;;38.60;22.57;;;3.30;99.90;;;;;;5013639;28;20203;-62
2024/01/01 05:37:30;;;;;;;33.60;20.67;;;3.20;99.90;;;;;;5016577;28;20282;-62
2024/01/01 05:39:57;;;;;;;31.83;20.80;;;;;;;;;;5012816;28;20205;-62
2024/01/01 05:42:24;;;;;;;33.67;21.13;;;2.60;99.90;;;;;;5013391;28;20664;-62
2024/01/01 05:44:51;;;;;;;37.80;21.23;;;3.60;99.90;;;;;;5012389;28;20751;-62
2024/01/01 05:47:18;;;;;;;32.10;19.87;;;3.60;99.90;;;;;;5012939;28;20212;-62
2024/01/01 05:49:46;;;;;;;32.07;19.47;;;3.50;99.90;;;;;;5013239;28;20267;-62
2024/01/01 05:52:13;;;;;;;31.83;19.77;;;3.20;99.90;;;;;;5005669;28;20205;-62
2024/01/01 05:55:00;;;;;;;37.63;21.37;;;3.30;99.90;;;;;;5013222;28;20923;-62
2024/01/01 05:57:27;;;;;;;33.43;20.20;;;3.10;99.90;;;;;;5012951;28;20201;-62
2024/01/01 05:59:54;;;;;;;31.57;19.40;;;3.30;99.90;;;;;;5012895;28;20205;-63
2024/01/01 06:02:20;;;;;;;31.07;17.27;;;3.20;99.90;;;;;;5012867;28;20209;-62
2024/01/01 06:04:49;;;;;;;31.63;18.97;;;3.20;99.90;;;;;;5013007;28;20218;-64
2024/01/01 06:07:16;;;;;;;28.73;16.03;;;3.30;99.90;;;;;;5013502;28;20206;-64
2024/01/01 06:09:43;;;;;;;27.07;16.03;;;3.30;99.90;;;;;;5012782;28;20207;-63
2024/01/01 06:12:10;;;;;;;22.57;14.97;;;;;;;;;;5012857;28;20214;-63
2024/01/01 06:14:37;;;;;;;27.57;16.20;;;;;;;;;;5012560;28;20716;-62
2024/01/01 06:17:04;;;;;;;24.27;15.13;;;3.40;99.90;;;;;;5013691;28;20225;-64
2024/01/01 06:19:32;;;;;;;26.50;15.27;;;;;;;;;;5012656;28;20251;-61
2024/01/01 06:22:04;;;;;;;23.33;14.13;;;;;;;;;;5012770;28;20272;-64
2024/01/01 06:24:31;;;;;;;20.23;13.03;;;3.40;99.90;;;;;;5012146;28;20680;-62
2024/01/01 06:27:02;;;;;;;19.50;11.67;;;;;;;;;;5012618;28;20255;-62
2024/01/01 06:29:29;;;;;;;18.73;11.50;;;3.50;99.90;;;;;;5012399;28;20666;-62
2024/01/01 06:31:59;;;;;;;18.30;12.20;;;3.50;99.90;;;;;;5012431;28;20251;-62
2024/01/01 06:34:26;;;;;;;15.67;10.97;;;3.40;99.90;;;;;;5012362;28;20240;-62
2024/01/01 06:36:53;;;;;;;16.03;9.80;;;3.60;99.90;;;;;;5012407;28;20704;-62
2024/01/01 06:39:22;;;;;;;15.23;9.20;;;3.50;99.90;;;;;;5016548;28;20229;-61
2024/01/01 06:41:49;;;;;;;14.83;9.03;;;3.60;99.90;;;;;;5011473;28;20212;-64
2024/01/01 06:44:16;;;;;;;14.67;9.37;;;;;;;;;;5012361;28;20248;-63
2024/01/01 06:46:43;;;;;;;12.87;8.17;;;3.70;99.90;;;;;;5012322;28;20232;-61
2024/01/01 06:49:10;;;;;;;12.50;9.43;;;3.90;99.90;;;;;;5011330;28;20686;-64
2024/01/01 06:51:37;;;;;;;9.63;6.87;;;;;;;;;;5012161;28;20208;-63
2024/01/01 06:54:04;;;;;;;12.23;8.83;;;3.70;99.90;;;;;;5012038;28;20268;-62
2024/01/01 06:56:32;;;;;;;13.43;8.13;;;4.00;99.90;;;;;;5012212;28;20291;-64
2024/01/01 06:58:59;;;;;;;15.70;8.80;;;;;;;;;;5011901;28;20394;-63
2024/01/01 07:01:28;;;;;;;18.23;8.90;;;;;;;;;;5012197;28;20198;-62
2024/01/01 07:03:55;;;;;;;14.67;10.37;;;3.80;99.90;;;;;;5011972;28;20207;-64
2024/01/01 07:06:22;;;;;;;17.47;10.03;;;4.00;99.90;;;;;;5016421;28;20612;-64
2024/01/01 07:08:49;;;;;;;15.73;9.97;;;3.90;99.90;;;;;;5015365;28;20236;-64
2024/01/01 07:11:16;;;;;;;15.90;10.17;;;3.90;99.90;;;;;;5012009;28;20271;-64
2024/01/01 07:13:45;;;;;;;16.83;10.73;;;3.90;99.90;;;;;;5014423;28;20197;-62
2024/01/01 07:16:12;;;;;;;15.87;10.73;;;;;;;;;;5011626;28;20260;-63
2024/01/01 07:18:39;;;;;;;16.77;10.97;;;;;;;;;;5011458;28;20748;-61
2024/01/01 07:21:07;;;;;;;20.13;10.83;;;;;;;;;;5011183;28;20204;-61
2024/01/01 07:23:34;;;;;;;14.00;9.37;;;4.00;99.90;;;;;;5006969;28;20237;-62
2024/01/01 07:26:02;;;;;;;12.47;8.40;;;3.90;99.90;;;;;;5016718;28;20319;-62
2024/01/01 07:28:29;;;;;;;13.10;6.77;;;3.90;99.90;;;;;;5011930;28;20201;-62
2024/01/01 07:30:58;;;;;;;12.43;7.17;;;;;;;;;;5014010;28;20200;-62
2024/01/01 07:33:26;;;;;;;16.73;9.50;;;;;;;;;;5019635;28;20225;-62
2024/01/01 07:35:53;;;;;;;13.80;8.93;;;4.10;99.90;;;;;;5014803;28;20220;-63
2024/01/01 07:38:20;;;;;;;11.60;7.80;;;4.20;99.90;;;;;;5013558;28;20209;-63
2024/01/01 07:40:47;;;;;;;11.90;7.43;;;4.10;99.90;;;;;;5012113;28;20669;-62
2024/01/01 07:43:14;;;;;;;10.83;7.93;;;4.10;99.90;;;;;;5014901;28;20884;-63
2024/01/01 07:45:41;;;;;;;11.23;7.73;;;4.00;99.90;;;;;;5011904;28;20244;-62
2024/01/01 07:48:09;;;;;;;11.30;7.67;;;4.10;99.90;;;;;;5013053;28;20216;-62
2024/01/01 07:50:37;;;;;;;13.13;7.50;;;;;;;;;;5017638;28;20258;-63
2024/01/01 07:53:04;;;;;;;10.37;6.43;;;4.00;99.90;;;;;;5013648;28;20202;-63
2024/01/01 07:55:31;;;;;;;10.63;6.63;;;4.20;99.90;;;;;;5016819;28;20282;-62
2024/01/01 07:57:58;;;;;;;10.00;6.83;;;4.00;99.90;;;;;;5011812;28;20561;-63
2024/01/01 08:00:25;;;;;;;7.43;6.20;;;4.20;99.90;;;;;;5012906;28;20202;-63
2024/01/01 08:02:52;;;;;;;8.27;6.03;;;4.10;99.90;;;;;;5015484;28;20275;-62
2024/01/01 08:05:21;;;;;;;11.50;7.07;;;4.40;99.90;;;;;;5014840;28;20238;-62
2024/01/01 08:07:48;;;;;;;11.17;7.10;;;4.00;99.90;;;;;;5014495;28;20210;-62
2024/01/01 08:10:16;;;;;;;8.70;6.63;;;4.40;99.90;;;;;;5008454;28;20233;-62
2024/01/01 08:12:43;;;;;;;9.37;6.23;;;4.30;99.90;;;;;;5015022;28;20205;-62
2024/01/01 08:15:10;;;;;;;9.57;7.13;;;4.50;99.90;;;;;;5014597;28;20255;-62
2024/01/01 08:17:37;;;;;;;7.47;5.97;;;4.40;99.90;;;;;;5016568;28;20584;-62
2024/01/01 08:20:05;;;;;;;8.40;6.53;;;4.60;99.90;;;;;;5021936;28;20291;-62
2024/01/01 08:22:33;;;;;;;9.10;6.60;;;4.50;99.90;;;;;;5019835;28;20205;-63
2024/01/01 08:25:00;;;;;;;10.33;6.00;;;4.60;99.90;;;;;;5014880;28;20367;-62
2024/01/01 08:27:27;;;;;;;9.67;5.80;;;4.90;99.90;;;;;;5014601;28;20715;-62
2024/01/01 08:29:54;;;;;;;10.40;7.43;;;4.60;99.90;;;;;;5014260;28;20774;-62
2024/01/01 08:32:21;;;;;;;10.03;6.20;;;4.60;99.90;;;;;;5014986;28;20205;-62
2024/01/01 08:34:49;;;;;;;9.07;6.00;;;;;;;;;;5014486;28;20204;-62
2024/01/01 08:37:16;;;;;;;11.23;7.03;;;;;;;;;;5014847;28;20655;-62
2024/01/01 08:39:44;;;;;;;8.60;5.97;;;;;;;;;;5020332;28;20206;-62
2024/01/01 08:42:11;;;;;;;9.90;7.10;;;4.90;99.90;;;;;;5014215;28;20296;-63
2024/01/01 08:44:40;;;;;;;9.47;6.37;;;;;;;;;;5014044;28;20263;-63
2024/01/01 08:47:07;;;;;;;7.40;5.90;;;;;;;;;;5013968;28;20229;-62
2024/01/01 08:49:34;;;;;;;8.13;5.27;;;5.00;99.90;;;;;;5015712;28;20207;-63
2024/01/01 08:52:05;;;;;;;8.17;5.20;;;5.10;99.90;;;;;;5015862;28;20627;-63
2024/01/01 08:54:32;;;;;;;6.20;4.20;;;5.00;99.90;;;;;;5014360;28;20263;-62
2024/01/01 08:57:01;;;;;;;4.90;4.43;;;5.10;99.90;;;;;;5014387;28;20213;-62
2024/01/01 08:59:29;;;;;;;9.07;7.47;;;5.30;99.90;;;;;;5013891;28;20292;-63
2024/01/01 09:01:56;;;;;;;5.80;4.40;;;5.70;99.90;;;;;;5015153;28;20215;-63
2024/01/01 09:04:23;;;;;;;3.63;3.33;;;5.90;99.90;;;;;;5013243;28;20213;-62
2024/01/01 09:06:50;;;;;;;4.63;4.07;;;5.60;99.90;;;;;;5015397;28;20232;-62
2024/01/01 09:09:17;;;;;;;8.23;6.50;;;5.70;99.90;;;;;;5013198;28;20260;-62
2024/01/01 09:11:47;;;;;;;6.90;5.43;;;5.60;99.90;;;;;;5013806;28;20205;-62
2024/01/01 09:14:15;;;;;;;5.30;4.33;;;5.50;99.90;;;;;;5014213;28;20200;-62
2024/01/01 09:16:43;;;;;;;4.07;3.23;;;5.60;99.90;;;;;;5013973;28;20230;-62
2024/01/01 09:19:10;;;;;;;4.13;3.73;;;5.60;99.90;;;;;;5010999;28;20209;-63
2024/01/01 09:21:38;;;;;;;4.23;3.73;;;5.80;99.90;;;;;;5016019;28;20245;-62
2024/01/01 09:24:09;;;;;;;5.47;3.17;;;6.00;99.90;;;;;;5011655;28;20236;-63
2024/01/01 09:26:36;;;;;;;5.10;3.60;;;5.90;99.90;;;;;;5003060;28;20238;-62
2024/01/01 09:29:04;;;;;;;3.50;3.20;;;6.00;99.90;;;;;;5012356;28;20209;-62
2024/01/01 09:31:32;;;;;;;3.20;3.00;;;6.00;99.90;;;;;;5009408;28;20685;-63
2024/01/01 09:34:03;;;;;;;4.90;3.80;;;6.00;99.90;;;;;;5009101;28;20263;-63
2024/01/01 09:36:30;;;;;;;4.60;4.17;;;6.00;99.90;;;;;;5008803;28;20221;-63
2024/01/01 09:38:58;;;;;;;4.27;3.87;;;6.00;99.90;;;;;;5001697;28;20288;-63
2024/01/01 09:41:25;;;;;;;3.73;3.33;;;6.00;99.90;;;;;;5014433;28;20615;-63
2024/01/01 09:43:52;;;;;;;4.97;3.27;;;6.00;99.90;;;;;;5013441;28;20229;-62
2024/01/01 09:46:20;;;;;;;3.80;3.50;;;6.10;99.90;;;;;;5013251;28;20222;-63
2024/01/01 09:48:48;;;;;;;4.77;2.77;;;6.20;99.90;;;;;;5013023;28;20214;-62
2024/01/01 09:51:16;;;;;;;3.37;3.07;;;6.50;99.90;;;;;;5014777;28;20632;-63
2024/01/01 09:53:45;;;;;;;2.60;2.40;;;6.60;99.90;;;;;;5015454;28;20258;-62
2024/01/01 09:56:12;;;;;;;2.77;2.57;;;6.70;99.90;;;;;;5012213;28;20695;-62
2024/01/01 09:58:42;;;;;;;3.70;2.87;;;6.90;99.90;;;;;;5012972;28;20208;-62
2024/01/01 10:01:10;;;;;;;1.77;1.67;;;6.90;99.90;;;;;;5015044;28;20291;-62
2024/01/01 10:03:37;;;;;;;2.03;1.73;;;7.40;99.90;;;;;;5018242;28;20254;-62
2024/01/01 10:06:10;;;;;;;2.13;1.97;;;6.80;99.90;;;;;;5010967;28;20226;-61
2024/01/01 10:08:37;;;;;;;4.13;2.40;;;6.90;99.90;;;;;;5012619;28;20201;-62
2024/01/01 10:11:18;;;;;;;2.47;2.20;;;7.00;99.90;;;;;;5013626;28;20242;-61
2024/01/01 10:13:45;;;;;;;2.00;1.80;;;6.90;99.90;;;;;;5020806;28;20209;-61
2024/01/01 10:16:25;;;;;;;1.80;1.60;;;7.00;99.90;;;;;;5009923;28;20229;-62
2024/01/01 10:18:56;;;;;;;1.23;1.13;;;7.30;99.90;;;;;;5009542;28;20211;-61
2024/01/01 10:21:29;;;;;;;1.37;1.27;;;7.20;99.90;;;;;;5009287;28;20750;-62
2024/01/01 10:23:57;;;;;;;2.40;1.50;;;7.00;99.90;;;;;;5009936;28;20628;-61
2024/01/01 10:26:24;;;;;;;1.73;1.50;;;7.00;99.90;;;;;;5012334;28;20314;-62
2024/01/01 10:28:51;;;;;;;2.30;1.80;;;6.90;99.90;;;;;;5011252;28;20279;-61
2024/01/01 10:31:19;;;;;;;2.70;1.90;;;7.20;99.90;;;;;;5005575;28;20208;-62
2024/01/01 10:33:49;;;;;;;4.30;3.83;;;7.20;99.90;;;;;;5010278;28;20204;-62
2024/01/01 10:36:19;;;;;;;2.13;2.00;;;7.40;99.90;;;;;;5005973;28;20248;-62
2024/01/01 10:38:50;;;;;;;2.00;1.90;;;7.60;99.90;;;;;;5012551;28;20207;-62
2024/01/01 10:41:18;;;;;;;2.13;1.93;;;7.70;99.90;;;;;;5004677;28;20585;-62
2024/01/01 10:43:47;;;;;;;3.77;2.73;;;7.50;99.90;;;;;;5010217;28;20234;-62
2024/01/01 10:46:14;;;;;;;1.93;1.83;;;7.60;99.90;;;;;;5008233;28;20224;-62
2024/01/01 10:48:43;;;;;;;2.80;2.00;;;7.80;99.90;;;;;;5010473;28;20647;-62
2024/01/01 10:51:33;;;;;;;2.30;2.10;;;7.90;99.90;;;;;;5005755;28;20211;-62
2024/01/01 10:54:21;;;;;;;1.77;1.67;;;8.00;99.90;;;;;;4997648;28;20232;-63
2024/01/01 10:57:05;;;;;;;2.87;2.03;;;8.10;99.90;;;;;;5010375;28;20220;-61
2024/01/01 10:59:40;;;;;;;2.77;1.93;;;7.90;99.90;;;;;;5008340;28;20227;-63
2024/01/01 11:02:10;;;;;;;2.50;1.70;;;7.80;99.90;;;;;;5011552;28;20584;-62
2024/01/01 11:04:37;;;;;;;2.87;2.23;;;;;;;;;;5014125;28;20251;-62
2024/01/01 11:07:04;;;;;;;3.37;2.30;;;7.60;99.90;;;;;;5013457;28;20698;-62
2024/01/01 11:09:34;;;;;;;1.93;1.67;;;7.60;99.90;;;;;;5011523;28;20259;-62
2024/01/01 11:12:05;;;;;;;1.80;1.70;;;7.40;99.90;;;;;;5002693;28;20201;-62
2024/01/01 11:14:34;;;;;;;2.07;1.87;;;7.40;99.90;;;;;;5015701;28;20208;-63
2024/01/01 11:17:06;;;;;;;1.87;1.70;;;7.40;99.90;;;;;;5014259;28;20219;-63
2024/01/01 11:19:38;;;;;;;1.80;1.50;;;7.50;99.90;;;;;;5011600;28;20220;-62
2024/01/01 11:22:31;;;;;;;1.33;1.33;;;7.40;99.90;;;;;;5012191;28;20204;-62
2024/01/01 11:25:00;;;;;;;1.60;1.53;;;7.40;99.90;;;;;;5011941;28;20584;-62
2024/01/01 11:27:28;;;;;;;1.57;1.47;;;7.40;99.90;;;;;;5010333;28;20256;-64
2024/01/01 11:30:01;;;;;;;1.40;1.30;;;7.40;99.90;;;;;;5011739;28;20207;-63
2024/01/01 11:32:28;;;;;;;1.20;1.10;;;7.40;99.90;;;;;;5011021;28;20291;-62
2024/01/01 11:35:06;;;;;;;1.57;1.40;;;7.50;99.90;;;;;;5014533;28;20207;-63
2024/01/01 11:37:33;;;;;;;1.40;1.10;;;7.60;99.90;;;;;;5015038;28;20193;-63
2024/01/01 11:40:02;;;;;;;2.63;1.23;;;7.70;99.90;;;;;;5010515;28;20256;-62
2024/01/01 11:42:29;;;;;;;0.93;0.83;;;7.70;99.90;;;;;;5005997;28;20206;-62
2024/01/01 11:45:10;;;;;;;1.33;1.23;;;7.80;99.90;;;;;;5010423;28;20204;-63
2024/01/01 11:47:38;;;;;;;1.27;1.17;;;8.00;99.90;;;;;;5007913;28;20231;-62
2024/01/01 11:50:06;;;;;;;1.27;0.77;;;8.10;99.90;;;;;;5009356;28;20197;-63
2024/01/01 11:52:34;;;;;;;1.57;1.10;;;8.20;99.90;;;;;;5010477;28;20276;-62
2024/01/01 11:55:02;;;;;;;1.17;1.17;;;8.30;99.90;;;;;;5009521;28;20252;-62
2024/01/01 11:57:29;;;;;;;2.03;1.40;;;8.40;99.90;;;;;;5010837;28;20192;-62
2024/01/01 11:59:57;;;;;;;2.30;1.87;;;;;;;;;;5005069;28;20265;-63
2024/01/01 12:02:24;;;;;;;1.23;0.90;;;;;;;;;;5009681;28;20662;-63
2024/01/01 12:04:53;;;;;;;1.40;1.20;;;8.50;99.90;;;;;;5008306;28;20275;-62
2024/01/01 12:07:28;;;;;;;1.00;1.00;;;8.70;99.90;;;;;;5012001;28;20724;-63
2024/01/01 12:10:10;;;;;;;1.67;1.57;;;;;;;;;;5006530;28;20208;-62
2024/01/01 12:12:38;;;;;;;2.30;0.80;;;;;;;;;;5004608;28;20279;-62
2024/01/01 12:15:09;;;;;;;1.87;1.10;;;;;;;;;;5013043;28;20259;-62
2024/01/01 12:17:40;;;;;;;1.40;1.30;;;8.60;99.90;;;;;;5016201;28;20728;-61
2024/01/01 12:20:09;;;;;;;1.20;1.10;;;8.80;99.90;;;;;;5018144;28;20279;-62
2024/01/01 12:22:36;;;;;;;1.43;1.43;;;8.90;99.90;;;;;;5024481;28;20232;-62
2024/01/01 12:25:06;;;;;;;1.23;1.07;;;9.00;99.90;;;;;;5010078;28;20577;-62
2024/01/01 12:27:33;;;;;;;1.00;0.93;;;9.00;99.90;;;;;;5012136;28;20233;-62
2024/01/01 12:30:00;;;;;;;1.57;0.93;;;8.90;99.90;;;;;;5016042;28;20205;-62
2024/01/01 12:32:27;;;;;;;1.67;1.00;;;8.80;99.90;;;;;;5020089;28;20255;-61
2024/01/01 12:34:55;;;;;;;0.90;0.90;;;8.80;99.90;;;;;;5013382;28;20213;-63
2024/01/01 12:37:23;;;;;;;1.17;0.90;;;8.70;99.90;;;;;;5013388;28;20673;-62
2024/01/01 12:39:50;;;;;;;1.00;0.73;;;8.70;99.90;;;;;;5008252;28;20294;-62
2024/01/01 12:42:19;;;;;;;1.23;1.13;;;8.80;99.90;;;;;;5008923;28;20229;-61
2024/01/01 12:44:46;;;;;;;2.33;1.00;;;8.80;99.90;;;;;;5007067;28;20267;-61
2024/01/01 12:47:14;;;;;;;0.90;0.90;;;8.80;99.90;;;;;;5010361;28;20305;-61
2024/01/01 12:49:41;;;;;;;0.80;0.80;;;8.90;99.90;;;;;;5005574;28;20259;-62
2024/01/01 12:52:08;;;;;;;2.97;0.93;;;8.90;99.90;;;;;;5020930;28;20199;-61
2024/01/01 12:54:35;;;;;;;1.87;1.00;;;8.90;99.90;;;;;;5010101;28;20256;-62
2024/01/01 12:57:04;;;;;;;1.63;1.30;;;8.90;99.90;;;;;;5010423;28;20267;-61
2024/01/01 12:59:33;;;;;;;0.80;0.80;;;8.80;99.90;;;;;;5015956;28;20197;-62
2024/01/01 13:02:01;;;;;;;1.20;1.07;;;8.80;99.90;;;;;;5014263;28;20255;-62